Time;durP1;ratioP1;P1;durP2;ratioP2;P2;SDS_P1;SDS_P2;PMS_P1;PMS_P2;Temp;Humidity;BMP_temperature;BMP_pressure;BME280_temperature;BME280_humidity;BME280_pressure;Samples;Min_cycle;Max_cycle;Signal;HPM_P1;HPM_P2
2022/04/16 00:02:09;;;;;;;7.40;3.80;;;20.90;45.00;;;;;;5015703;28;20193;-71
2022/04/16 00:04:36;;;;;;;6.18;3.72;;;20.90;45.00;;;;;;4997776;28;20211;-69
2022/04/16 00:07:05;;;;;;;5.97;3.45;;;20.90;45.10;;;;;;5014159;28;20608;-70
2022/04/16 00:09:32;;;;;;;5.78;3.50;;;20.90;45.10;;;;;;4998067;28;20224;-70
2022/04/16 00:11:59;;;;;;;5.57;3.40;;;20.80;47.20;;;;;;4997807;28;20303;-70
2022/04/16 00:14:26;;;;;;;5.25;3.45;;;20.80;47.60;;;;;;4997886;28;20211;-70
2022/04/16 00:16:53;;;;;;;7.57;3.38;;;20.80;47.40;;;;;;4997736;28;20192;-70
2022/04/16 00:19:20;;;;;;;4.57;3.42;;;20.80;47.60;;;;;;5015513;28;20690;-70
2022/04/16 00:21:47;;;;;;;5.82;3.33;;;20.80;47.50;;;;;;4997460;28;20260;-70
2022/04/16 00:24:15;;;;;;;5.20;3.40;;;20.80;47.60;;;;;;4997595;28;20207;-70
2022/04/16 00:26:42;;;;;;;5.78;3.42;;;20.80;47.60;;;;;;4997735;28;20678;-69
2022/04/16 00:29:12;;;;;;;5.03;3.70;;;20.80;47.50;;;;;;4997555;28;20220;-70
2022/04/16 00:31:39;;;;;;;4.63;3.70;;;20.80;48.00;;;;;;4997326;28;20227;-69
2022/04/16 00:34:06;;;;;;;5.85;3.53;;;20.80;47.00;;;;;;5014985;28;20208;-70
2022/04/16 00:36:33;;;;;;;6.20;3.30;;;20.80;47.50;;;;;;4997124;28;20207;-70
2022/04/16 00:39:00;;;;;;;5.25;3.20;;;20.80;47.00;;;;;;5015179;28;20733;-69
2022/04/16 00:41:29;;;;;;;4.18;3.13;;;20.70;46.70;;;;;;4996998;28;20753;-70
2022/04/16 00:43:56;;;;;;;3.15;2.85;;;20.70;46.80;;;;;;5013278;28;20205;-70
2022/04/16 00:46:22;;;;;;;3.72;2.65;;;20.70;47.00;;;;;;4997114;28;20224;-70
2022/04/16 00:48:50;;;;;;;3.67;2.88;;;20.70;46.30;;;;;;5014625;28;20264;-70
2022/04/16 00:51:17;;;;;;;4.15;2.97;;;20.70;46.30;;;;;;5014519;28;20634;-70
2022/04/16 00:53:44;;;;;;;3.40;2.85;;;20.60;46.30;;;;;;4996966;28;20688;-69
2022/04/16 00:56:12;;;;;;;4.60;3.20;;;20.70;46.60;;;;;;5013437;28;20396;-70
2022/04/16 00:58:41;;;;;;;4.28;3.20;;;20.60;46.30;;;;;;4996455;28;20685;-71
2022/04/16 01:01:08;;;;;;;4.82;3.15;;;20.60;46.30;;;;;;5014331;28;20193;-70
2022/04/16 01:03:35;;;;;;;5.70;3.50;;;20.60;46.90;;;;;;5014300;28;20197;-70
2022/04/16 01:06:02;;;;;;;3.97;3.17;;;20.60;46.50;;;;;;5014549;28;20199;-71
2022/04/16 01:08:29;;;;;;;3.97;2.95;;;20.60;46.30;;;;;;4996646;28;20197;-69
2022/04/16 01:10:56;;;;;;;4.70;3.40;;;20.50;46.30;;;;;;5012814;28;20235;-70
2022/04/16 01:13:23;;;;;;;5.20;3.28;;;20.50;46.50;;;;;;4997434;28;20205;-70
2022/04/16 01:15:52;;;;;;;3.92;2.83;;;20.50;46.70;;;;;;5014252;28;20200;-70
2022/04/16 01:18:19;;;;;;;4.80;2.97;;;20.50;46.60;;;;;;4996753;28;20197;-69
2022/04/16 01:20:46;;;;;;;4.13;2.80;;;20.50;46.80;;;;;;4996484;28;20220;-69
2022/04/16 01:23:15;;;;;;;3.25;2.80;;;20.40;46.80;;;;;;4996563;28;20562;-70
2022/04/16 01:25:42;;;;;;;4.40;3.17;;;20.40;46.70;;;;;;4996447;28;20222;-69
2022/04/16 01:28:10;;;;;;;3.67;3.15;;;20.40;46.90;;;;;;5013874;28;20193;-70
2022/04/16 01:30:38;;;;;;;2.90;2.60;;;20.40;46.90;;;;;;5012529;28;20221;-70
2022/04/16 01:33:05;;;;;;;3.90;2.95;;;20.40;46.90;;;;;;4996484;28;20208;-70
2022/04/16 01:35:32;;;;;;;3.30;2.80;;;20.40;46.60;;;;;;4996631;28;20201;-69
2022/04/16 01:37:59;;;;;;;3.55;2.67;;;20.40;46.70;;;;;;5013833;28;20697;-70
2022/04/16 01:40:28;;;;;;;4.18;2.70;;;20.30;46.90;;;;;;4996156;28;20278;-70
2022/04/16 01:42:56;;;;;;;3.95;2.53;;;20.30;46.50;;;;;;4996103;28;20196;-70
2022/04/16 01:45:24;;;;;;;3.15;2.50;;;20.30;46.90;;;;;;4996222;28;20209;-69
2022/04/16 01:47:50;;;;;;;3.83;2.60;;;20.30;46.70;;;;;;5013911;28;20189;-69
2022/04/16 01:50:18;;;;;;;3.95;2.80;;;20.30;46.70;;;;;;4996272;28;20224;-69
2022/04/16 01:52:45;;;;;;;3.15;2.80;;;20.30;46.70;;;;;;4996044;28;20365;-70
2022/04/16 01:55:13;;;;;;;3.00;2.50;;;20.30;46.70;;;;;;5012368;28;20232;-70
2022/04/16 01:57:41;;;;;;;3.05;2.65;;;20.20;46.50;;;;;;5012223;28;20193;-70
2022/04/16 02:00:09;;;;;;;4.15;2.67;;;20.20;46.40;;;;;;4996021;28;20228;-70
2022/04/16 02:02:37;;;;;;;2.88;2.30;;;20.20;46.60;;;;;;4995784;28;20292;-70
2022/04/16 02:05:05;;;;;;;2.60;2.40;;;20.10;46.40;;;;;;4995913;28;20193;-70
2022/04/16 02:07:32;;;;;;;3.10;2.80;;;20.20;46.60;;;;;;4996843;28;20662;-70
2022/04/16 02:10:00;;;;;;;2.70;2.50;;;20.10;46.40;;;;;;5012879;28;20222;-70
2022/04/16 02:12:27;;;;;;;2.72;2.28;;;20.10;46.70;;;;;;5000572;28;20762;-70
2022/04/16 02:14:55;;;;;;;3.55;2.80;;;20.10;46.40;;;;;;5017962;28;20677;-70
2022/04/16 02:17:23;;;;;;;3.33;2.55;;;20.10;46.40;;;;;;5000410;28;20211;-70
2022/04/16 02:19:50;;;;;;;3.45;2.60;;;20.10;46.60;;;;;;5016127;28;20255;-69
2022/04/16 02:22:16;;;;;;;3.72;2.42;;;20.00;46.50;;;;;;4999980;28;20188;-70
2022/04/16 02:24:46;;;;;;;3.17;2.33;;;20.00;46.40;;;;;;5016077;28;20196;-70
2022/04/16 02:27:13;;;;;;;4.00;2.70;;;20.00;46.40;;;;;;5016100;28;20658;-70
2022/04/16 02:29:40;;;;;;;3.25;2.70;;;20.00;46.40;;;;;;5017332;28;20219;-70
2022/04/16 02:32:09;;;;;;;3.20;2.40;;;20.00;46.30;;;;;;4999702;28;20586;-70
2022/04/16 02:34:36;;;;;;;3.67;2.53;;;20.00;46.00;;;;;;4999692;28;20211;-70
2022/04/16 02:37:03;;;;;;;3.47;2.40;;;20.00;46.10;;;;;;4999470;28;20196;-70
2022/04/16 02:39:29;;;;;;;3.47;2.35;;;19.90;45.90;;;;;;4999503;28;20263;-69
2022/04/16 02:41:56;;;;;;;3.53;2.28;;;19.90;45.90;;;;;;5015958;28;20218;-70
2022/04/16 02:47:09;;;;;;;2.38;2.17;;;19.90;46.00;;;;;;5017021;28;20176;-70
2022/04/16 02:49:37;;;;;;;2.72;2.30;;;19.90;45.90;;;;;;4999328;28;20224;-70
2022/04/16 02:52:04;;;;;;;3.13;2.40;;;19.80;45.80;;;;;;5199558;22;20235;-70
2022/04/16 02:54:31;;;;;;;2.40;2.20;;;19.80;45.80;;;;;;5020712;28;20204;-70
2022/04/16 02:56:59;;;;;;;3.08;2.20;;;19.80;45.60;;;;;;5020317;28;20196;-71
2022/04/16 02:59:27;;;;;;;2.53;2.33;;;19.80;45.90;;;;;;5020008;28;20200;-71
2022/04/16 03:01:54;;;;;;;2.38;2.15;;;19.80;46.00;;;;;;5019565;28;20216;-71
2022/04/16 03:04:23;;;;;;;2.30;2.00;;;19.70;45.90;;;;;;5019681;28;20251;-71
2022/04/16 03:06:51;;;;;;;3.03;2.50;;;19.80;45.90;;;;;;5019811;28;20199;-71
2022/04/16 03:09:18;;;;;;;2.83;2.47;;;19.70;45.70;;;;;;5019267;28;20227;-71
2022/04/16 03:11:45;;;;;;;2.47;2.28;;;19.70;45.80;;;;;;5019362;28;20216;-70
2022/04/16 03:19:43;;;;;;;2.30;2.10;;;19.70;46.00;;;;;;5018950;28;20192;-71
2022/04/16 03:22:10;;;;;;;2.13;2.00;;;19.70;45.70;;;;;;5017818;28;20220;-71
2022/04/16 03:24:38;;;;;;;2.58;2.38;;;19.70;45.80;;;;;;5036387;28;20196;-71
2022/04/16 03:27:05;;;;;;;2.67;2.47;;;19.70;45.90;;;;;;5036589;28;20192;-70
2022/04/16 03:29:33;;;;;;;2.35;2.10;;;19.60;45.90;;;;;;5018599;28;20614;-71
2022/04/16 03:32:00;;;;;;;2.45;2.25;;;19.60;45.90;;;;;;5036137;28;20312;-71
2022/04/16 03:34:27;;;;;;;2.35;2.15;;;19.70;45.90;;;;;;5036153;28;20193;-71
2022/04/16 03:36:56;;;;;;;2.85;2.28;;;19.70;45.80;;;;;;5018846;28;20214;-71
2022/04/16 03:39:23;;;;;;;2.13;2.03;;;19.70;45.80;;;;;;5036242;28;20207;-71
2022/04/16 03:41:51;;;;;;;2.88;2.30;;;19.70;45.70;;;;;;5018417;28;20197;-71
2022/04/16 03:44:18;;;;;;;2.10;1.90;;;19.70;45.70;;;;;;5035970;28;20235;-70
2022/04/16 03:46:45;;;;;;;2.00;1.85;;;19.70;45.80;;;;;;5018849;28;20262;-71
2022/04/16 03:49:12;;;;;;;2.38;2.20;;;19.70;45.70;;;;;;5018232;28;20200;-71
2022/04/16 03:51:39;;;;;;;2.30;2.00;;;19.70;45.50;;;;;;5036104;28;20215;-71
2022/04/16 04:02:21;;;;;;;2.50;2.30;;;19.70;45.50;;;;;;5018081;28;20595;-71
2022/04/16 04:04:49;;;;;;;3.70;2.30;;;19.70;45.50;;;;;;5018107;28;20196;-70
2022/04/16 04:07:16;;;;;;;2.17;1.98;;;19.70;45.50;;;;;;5034655;28;20203;-71
2022/04/16 04:09:45;;;;;;;2.40;2.20;;;19.70;45.50;;;;;;5017935;28;20303;-70
2022/04/16 04:12:11;;;;;;;2.08;1.98;;;19.70;45.40;;;;;;5017850;28;20231;-71
2022/04/16 04:14:39;;;;;;;2.30;2.10;;;19.70;45.50;;;;;;5017986;28;20649;-71
2022/04/16 04:17:07;;;;;;;2.10;1.90;;;19.70;45.40;;;;;;5019344;28;20740;-70
2022/04/16 04:19:35;;;;;;;2.08;1.98;;;19.70;45.30;;;;;;5036116;28;20199;-70
2022/04/16 04:22:02;;;;;;;2.00;1.80;;;19.70;45.30;;;;;;5035695;28;20219;-70
2022/04/16 04:24:30;;;;;;;2.03;1.92;;;19.70;45.00;;;;;;5017753;28;20266;-70
2022/04/16 04:26:58;;;;;;;2.53;2.33;;;19.70;45.10;;;;;;5035462;28;20192;-71
2022/04/16 04:29:26;;;;;;;2.00;1.80;;;19.70;45.00;;;;;;5036069;28;20193;-71
2022/04/16 04:31:53;;;;;;;2.10;1.90;;;19.80;45.10;;;;;;5017748;28;20227;-71
2022/04/16 04:34:20;;;;;;;1.92;1.83;;;19.70;45.10;;;;;;5017333;28;20204;-71
2022/04/16 04:36:47;;;;;;;2.05;1.85;;;19.80;45.10;;;;;;5034278;28;20206;-70
2022/04/16 04:39:14;;;;;;;2.25;2.00;;;19.80;44.90;;;;;;5018042;28;20204;-71
2022/04/16 04:41:42;;;;;;;2.15;1.98;;;19.80;44.90;;;;;;5155945;22;21990;-72
2022/04/16 04:44:12;;;;;;;2.00;1.90;;;19.80;44.40;;;;;;5037456;28;20241;-73
2022/04/16 04:46:40;;;;;;;2.22;2.03;;;19.90;44.60;;;;;;5260806;22;20734;-71
2022/04/16 04:49:08;;;;;;;2.05;1.85;;;19.90;44.70;;;;;;5087638;22;20230;-71
2022/04/16 04:54:22;;;;;;;2.47;2.28;;;19.90;45.30;;;;;;5084576;22;20226;-72
2022/04/16 04:56:49;;;;;;;2.03;1.88;;;19.90;45.30;;;;;;5038479;28;20199;-71
2022/04/16 04:59:17;;;;;;;2.55;2.10;;;19.90;45.80;;;;;;5039926;28;20204;-71
2022/04/16 05:01:44;;;;;;;2.38;2.10;;;19.90;46.20;;;;;;5090513;22;20681;-71
2022/04/16 05:04:11;;;;;;;2.20;2.00;;;19.90;46.20;;;;;;5036911;28;20191;-72
2022/04/16 05:06:38;;;;;;;1.73;1.63;;;19.90;46.20;;;;;;5054805;28;20677;-72
2022/04/16 05:09:05;;;;;;;1.90;1.80;;;20.00;46.60;;;;;;5037035;28;20277;-71
2022/04/16 05:11:32;;;;;;;2.20;2.00;;;20.00;46.40;;;;;;5036445;28;20206;-72
2022/04/16 05:13:59;;;;;;;4.20;2.20;;;19.90;46.30;;;;;;5036218;28;20219;-71
2022/04/16 05:16:27;;;;;;;2.15;1.90;;;20.00;45.80;;;;;;5036303;28;20572;-71
2022/04/16 05:18:55;;;;;;;2.47;2.28;;;20.00;46.60;;;;;;5182014;22;20167;-71
2022/04/16 05:21:22;;;;;;;2.30;2.00;;;20.00;46.10;;;;;;5053126;28;20643;-67
2022/04/16 05:23:49;;;;;;;2.10;1.90;;;20.10;46.00;;;;;;5053978;28;20583;-66
2022/04/16 05:26:16;;;;;;;2.30;2.10;;;20.10;45.20;;;;;;5053994;28;20195;-67
2022/04/16 05:28:43;;;;;;;1.90;1.80;;;20.10;45.00;;;;;;5036118;28;20577;-67
2022/04/16 05:31:10;;;;;;;2.00;1.90;;;20.10;45.10;;;;;;5035658;28;20238;-67
2022/04/16 05:36:23;;;;;;;2.05;1.90;;;20.20;44.90;;;;;;5036624;28;20202;-68
2022/04/16 05:38:50;;;;;;;2.10;2.00;;;20.20;44.60;;;;;;5053665;28;20188;-69
2022/04/16 05:41:17;;;;;;;2.00;1.90;;;20.20;44.50;;;;;;5052347;28;20222;-68
2022/04/16 05:43:44;;;;;;;2.03;1.92;;;20.20;44.60;;;;;;5052435;28;20197;-67
2022/04/16 05:46:11;;;;;;;2.88;1.83;;;20.20;44.40;;;;;;5034885;28;20196;-68
2022/04/16 05:48:40;;;;;;;1.77;1.55;;;20.20;44.30;;;;;;5052432;28;20210;-68
2022/04/16 05:51:07;;;;;;;2.00;1.90;;;20.20;44.40;;;;;;5086512;22;20237;-67
2022/04/16 05:53:34;;;;;;;1.90;1.80;;;20.30;44.90;;;;;;5139371;22;20246;-66
2022/04/16 05:56:01;;;;;;;2.10;1.90;;;20.20;44.20;;;;;;5035615;28;20191;-67
2022/04/16 05:58:28;;;;;;;1.83;1.73;;;20.30;44.30;;;;;;5035575;28;20203;-67
2022/04/16 06:00:56;;;;;;;2.40;2.20;;;20.30;44.30;;;;;;5035607;28;20269;-67
2022/04/16 06:03:23;;;;;;;3.00;2.10;;;20.30;44.20;;;;;;5035641;28;20286;-67
2022/04/16 06:05:52;;;;;;;1.90;1.80;;;20.30;44.30;;;;;;5035303;28;20648;-65
2022/04/16 06:08:19;;;;;;;2.40;2.20;;;20.30;44.80;;;;;;5035422;28;20199;-67
2022/04/16 06:10:46;;;;;;;2.22;2.03;;;20.30;44.10;;;;;;5053207;28;20689;-67
2022/04/16 06:13:13;;;;;;;2.00;1.90;;;20.30;44.30;;;;;;5053344;28;20764;-66
2022/04/16 06:15:41;;;;;;;2.03;1.90;;;20.40;44.30;;;;;;5035122;28;20782;-67
2022/04/16 06:18:08;;;;;;;2.17;1.98;;;20.40;44.10;;;;;;5053440;28;20188;-66
2022/04/16 06:20:35;;;;;;;2.22;2.08;;;20.40;44.20;;;;;;5052381;28;20319;-66
2022/04/16 06:23:07;;;;;;;2.30;2.10;;;20.40;44.10;;;;;;5036758;28;20196;-70
2022/04/16 06:25:35;;;;;;;2.33;2.13;;;20.40;43.80;;;;;;5096926;22;20235;-68
2022/04/16 06:28:02;;;;;;;2.05;1.92;;;20.40;43.40;;;;;;5035666;28;20191;-70
2022/04/16 06:30:29;;;;;;;2.13;2.03;;;20.50;43.60;;;;;;5035069;28;20314;-70
2022/04/16 06:32:56;;;;;;;1.98;1.88;;;20.50;43.60;;;;;;5035269;28;20226;-70
2022/04/16 06:35:24;;;;;;;2.75;2.55;;;20.50;43.50;;;;;;5053339;28;20246;-70
2022/04/16 06:37:51;;;;;;;2.00;1.90;;;20.50;43.30;;;;;;5052837;28;20703;-70
2022/04/16 06:40:20;;;;;;;2.22;2.03;;;20.50;43.40;;;;;;5035126;28;20783;-70
2022/04/16 06:42:47;;;;;;;2.20;2.10;;;20.60;43.30;;;;;;5035380;28;20196;-70
2022/04/16 06:45:14;;;;;;;2.10;2.00;;;20.60;43.00;;;;;;5035086;28;20202;-70
2022/04/16 06:47:41;;;;;;;2.80;2.00;;;20.60;43.00;;;;;;5053209;28;20657;-70
2022/04/16 06:50:09;;;;;;;2.55;2.00;;;20.60;43.10;;;;;;5035267;28;20306;-70
2022/04/16 06:52:36;;;;;;;2.30;2.10;;;20.60;43.00;;;;;;5036589;28;20245;-70
2022/04/16 06:55:03;;;;;;;1.90;1.80;;;20.70;43.00;;;;;;5035966;28;20207;-73
2022/04/16 06:57:32;;;;;;;2.13;1.92;;;20.70;43.10;;;;;;5038228;28;20196;-69
2022/04/16 06:59:59;;;;;;;2.00;1.90;;;20.70;42.80;;;;;;5057125;28;20261;-70
2022/04/16 07:02:26;;;;;;;2.40;2.20;;;20.70;42.70;;;;;;5039270;28;20206;-70
2022/04/16 07:04:54;;;;;;;2.17;2.08;;;20.70;42.80;;;;;;5055244;28;20199;-70
2022/04/16 07:07:21;;;;;;;2.20;2.10;;;20.70;42.60;;;;;;5038463;28;20199;-70
2022/04/16 07:09:48;;;;;;;2.00;1.90;;;20.70;42.70;;;;;;5038352;28;20224;-70
2022/04/16 07:12:15;;;;;;;2.40;2.20;;;20.70;42.60;;;;;;5038351;28;20199;-70
2022/04/16 07:14:44;;;;;;;2.20;2.05;;;20.70;42.50;;;;;;5038279;28;20209;-70
2022/04/16 07:17:10;;;;;;;2.15;2.00;;;20.70;42.40;;;;;;5056127;28;20194;-70
2022/04/16 07:19:38;;;;;;;2.13;2.00;;;20.80;42.90;;;;;;5038345;28;20285;-70
2022/04/16 07:22:05;;;;;;;2.70;2.20;;;20.80;42.30;;;;;;5038112;28;20198;-69
2022/04/16 07:24:37;;;;;;;2.20;2.10;;;20.80;42.40;;;;;;5038042;28;20200;-70
2022/04/16 07:27:05;;;;;;;2.22;2.13;;;20.80;42.50;;;;;;5055006;28;20665;-70
2022/04/16 07:29:33;;;;;;;2.10;2.00;;;20.80;42.30;;;;;;5037957;28;20697;-70
2022/04/16 07:32:01;;;;;;;2.22;2.10;;;20.80;41.90;;;;;;5037930;28;20219;-70
2022/04/16 07:34:28;;;;;;;2.47;2.28;;;20.80;41.90;;;;;;5039454;28;20709;-70
2022/04/16 07:36:55;;;;;;;2.10;2.00;;;20.80;42.20;;;;;;5055979;28;20203;-70
2022/04/16 07:39:22;;;;;;;2.72;2.53;;;20.80;41.70;;;;;;5157090;22;20325;-70
2022/04/16 07:41:51;;;;;;;2.22;2.08;;;20.80;41.40;;;;;;5056089;28;20661;-70
2022/04/16 07:44:18;;;;;;;2.60;2.40;;;20.80;41.40;;;;;;5089025;22;20188;-69
2022/04/16 07:46:46;;;;;;;2.58;2.38;;;20.90;41.50;;;;;;5020931;28;20203;-68
2022/04/16 07:49:17;;;;;;;2.40;2.20;;;20.90;41.40;;;;;;5018368;28;20222;-67
2022/04/16 07:51:45;;;;;;;2.42;2.22;;;20.90;41.50;;;;;;5017858;28;20200;-67
2022/04/16 07:54:12;;;;;;;2.78;1.98;;;20.90;41.70;;;;;;5018362;28;20230;-67
2022/04/16 07:56:39;;;;;;;2.42;2.22;;;20.90;41.70;;;;;;5017934;28;20615;-67
2022/04/16 07:59:06;;;;;;;2.20;2.10;;;20.90;42.00;;;;;;5018358;28;20274;-67
2022/04/16 08:01:33;;;;;;;2.30;2.10;;;20.90;41.50;;;;;;5018107;28;20196;-67
2022/04/16 08:03:59;;;;;;;1.85;1.70;;;20.90;42.00;;;;;;5017816;28;20200;-67
2022/04/16 08:06:28;;;;;;;2.50;2.30;;;20.90;42.10;;;;;;5017847;28;20246;-66
2022/04/16 08:09:00;;;;;;;2.60;2.40;;;21.00;42.10;;;;;;5034964;28;20275;-67
2022/04/16 08:11:29;;;;;;;2.30;2.20;;;21.00;42.00;;;;;;5035678;28;20168;-67
2022/04/16 08:13:56;;;;;;;2.63;2.17;;;21.00;42.00;;;;;;5035656;28;20207;-66
2022/04/16 08:16:22;;;;;;;2.45;2.25;;;21.00;41.90;;;;;;5017682;28;20196;-66
2022/04/16 08:18:50;;;;;;;2.10;2.00;;;21.10;42.00;;;;;;5018110;28;20327;-67
2022/04/16 08:21:17;;;;;;;2.50;2.30;;;21.10;41.60;;;;;;5088124;22;20262;-67
2022/04/16 08:23:55;;;;;;;2.10;2.00;;;21.10;41.50;;;;;;5055037;28;20198;-67
2022/04/16 08:26:22;;;;;;;2.20;2.10;;;21.10;41.70;;;;;;5055545;28;20266;-67
2022/04/16 08:28:49;;;;;;;2.40;2.20;;;21.10;41.80;;;;;;5037237;28;20249;-67
2022/04/16 08:31:16;;;;;;;2.17;2.00;;;21.10;41.90;;;;;;5017187;28;20196;-67
2022/04/16 08:33:43;;;;;;;2.38;2.17;;;21.10;41.70;;;;;;5017376;28;20223;-66
2022/04/16 08:36:10;;;;;;;3.25;2.40;;;21.10;41.70;;;;;;5017225;28;20196;-67
2022/04/16 08:38:37;;;;;;;2.38;2.20;;;21.20;41.60;;;;;;5034639;28;20184;-67
2022/04/16 08:41:06;;;;;;;2.50;2.30;;;21.20;41.80;;;;;;5034586;28;20208;-66
2022/04/16 08:43:33;;;;;;;2.50;2.30;;;21.20;41.60;;;;;;5016931;28;20196;-67
2022/04/16 08:46:00;;;;;;;2.40;2.28;;;21.20;41.50;;;;;;5016887;28;20207;-67
2022/04/16 08:48:27;;;;;;;2.50;2.30;;;21.30;41.30;;;;;;5034543;28;20195;-67
2022/04/16 08:50:54;;;;;;;2.70;2.50;;;21.30;41.30;;;;;;5016745;28;20228;-67
2022/04/16 08:53:21;;;;;;;2.00;1.90;;;21.30;41.20;;;;;;5016936;28;20310;-67
2022/04/16 08:55:49;;;;;;;2.28;2.17;;;21.40;41.50;;;;;;5034570;28;20184;-67
2022/04/16 08:58:17;;;;;;;2.40;2.20;;;21.40;41.40;;;;;;5034333;28;20242;-67
2022/04/16 09:00:45;;;;;;;2.75;2.28;;;21.40;41.20;;;;;;5016682;28;20270;-67
2022/04/16 09:03:12;;;;;;;2.55;2.35;;;21.40;41.10;;;;;;5016528;28;20195;-67
2022/04/16 09:05:39;;;;;;;2.40;2.20;;;21.40;41.30;;;;;;5016729;28;20203;-67
2022/04/16 09:08:07;;;;;;;2.17;1.98;;;21.40;41.20;;;;;;5034620;28;20342;-67
2022/04/16 09:10:36;;;;;;;2.40;2.20;;;21.40;41.30;;;;;;5016525;28;20221;-66
2022/04/16 09:13:04;;;;;;;2.40;2.20;;;21.40;41.00;;;;;;5017197;28;20231;-67
2022/04/16 09:15:34;;;;;;;2.55;2.35;;;21.40;41.50;;;;;;5016662;28;20291;-67
2022/04/16 09:18:02;;;;;;;2.97;2.33;;;21.40;41.20;;;;;;5016727;28;20674;-67
2022/04/16 09:20:34;;;;;;;2.92;2.45;;;21.50;41.30;;;;;;5016429;28;20232;-67
2022/04/16 09:23:01;;;;;;;2.80;2.60;;;21.40;41.40;;;;;;5016870;28;20208;-67
2022/04/16 09:25:32;;;;;;;2.90;2.50;;;21.40;41.20;;;;;;5034699;28;20188;-67
2022/04/16 09:28:06;;;;;;;2.58;2.38;;;21.40;41.30;;;;;;5016664;28;20246;-67
2022/04/16 09:30:37;;;;;;;2.80;2.60;;;21.40;41.30;;;;;;5016311;28;20309;-67
2022/04/16 09:33:05;;;;;;;2.50;2.30;;;21.40;40.80;;;;;;5016155;28;20195;-67
2022/04/16 09:35:33;;;;;;;2.70;2.50;;;21.50;41.00;;;;;;5016230;28;20202;-67
2022/04/16 09:38:01;;;;;;;3.15;2.90;;;21.40;41.10;;;;;;5016091;28;20200;-67
2022/04/16 09:40:29;;;;;;;2.50;2.30;;;21.40;40.60;;;;;;5016032;28;20215;-66
2022/04/16 09:42:57;;;;;;;2.53;2.33;;;21.40;40.90;;;;;;5033748;28;20188;-67
2022/04/16 09:45:24;;;;;;;2.75;2.55;;;21.40;41.00;;;;;;5015904;28;20736;-67
2022/04/16 09:47:53;;;;;;;2.55;2.35;;;21.40;40.80;;;;;;5016604;28;20366;-69
2022/04/16 09:50:21;;;;;;;2.85;2.40;;;21.40;40.70;;;;;;5034169;28;20262;-67
2022/04/16 09:52:52;;;;;;;2.42;2.22;;;21.50;41.00;;;;;;5033993;28;20200;-67
2022/04/16 09:55:21;;;;;;;2.45;2.25;;;21.50;40.50;;;;;;5015924;28;20270;-67
2022/04/16 09:57:50;;;;;;;2.50;2.30;;;21.50;40.60;;;;;;5016018;28;20204;-67
2022/04/16 10:00:18;;;;;;;2.83;2.63;;;21.50;40.90;;;;;;5033427;28;20207;-67
2022/04/16 10:02:46;;;;;;;2.65;2.45;;;21.60;40.30;;;;;;5016056;28;20195;-64
2022/04/16 10:05:14;;;;;;;2.72;2.53;;;21.70;40.20;;;;;;5034090;28;20200;-70
2022/04/16 10:07:42;;;;;;;2.30;2.20;;;21.70;40.30;;;;;;5015889;28;20203;-70
2022/04/16 10:10:17;;;;;;;2.42;2.22;;;21.80;40.00;;;;;;5033410;28;20277;-70
2022/04/16 10:13:03;;;;;;;2.28;2.17;;;21.80;40.20;;;;;;5015541;28;20546;-70
2022/04/16 10:15:42;;;;;;;2.53;2.33;;;21.90;39.90;;;;;;5033104;28;20231;-69
2022/04/16 10:18:11;;;;;;;2.05;1.95;;;22.00;40.10;;;;;;5015725;28;20214;-71
2022/04/16 10:20:49;;;;;;;2.55;2.35;;;22.00;40.30;;;;;;5015493;28;20220;-70
2022/04/16 10:23:25;;;;;;;2.35;2.25;;;22.00;39.60;;;;;;5016816;28;20292;-70
2022/04/16 10:25:52;;;;;;;2.70;2.50;;;22.00;39.50;;;;;;5033366;28;20622;-70
2022/04/16 10:28:20;;;;;;;2.70;2.50;;;22.00;39.40;;;;;;5015491;28;20200;-70
2022/04/16 10:30:51;;;;;;;2.70;2.50;;;22.00;39.60;;;;;;5015480;28;20216;-70
2022/04/16 10:33:18;;;;;;;2.70;2.50;;;22.00;39.30;;;;;;5019389;28;20188;-70
2022/04/16 10:35:56;;;;;;;2.38;2.17;;;21.90;39.40;;;;;;5019320;28;20242;-70
2022/04/16 10:38:26;;;;;;;2.85;2.65;;;22.00;39.60;;;;;;5019800;28;20283;-70
2022/04/16 10:40:57;;;;;;;2.75;2.55;;;22.00;39.70;;;;;;5019531;28;20646;-70
2022/04/16 10:43:31;;;;;;;3.17;2.50;;;22.00;40.30;;;;;;5037140;28;20196;-70
2022/04/16 10:46:02;;;;;;;3.65;2.22;;;22.00;39.70;;;;;;5019149;28;20649;-70
2022/04/16 10:48:32;;;;;;;2.50;2.30;;;22.10;39.80;;;;;;5019250;28;20200;-70
2022/04/16 10:51:00;;;;;;;3.15;2.85;;;22.10;39.60;;;;;;5018953;28;20223;-70
2022/04/16 10:53:28;;;;;;;2.67;2.47;;;22.10;39.50;;;;;;5018953;28;20204;-70
2022/04/16 10:55:55;;;;;;;2.88;2.67;;;22.20;39.20;;;;;;5018990;28;20242;-70
2022/04/16 10:58:27;;;;;;;2.70;2.50;;;22.20;38.90;;;;;;5036965;28;20534;-70
2022/04/16 11:01:05;;;;;;;2.50;2.30;;;22.20;39.30;;;;;;5018916;28;20223;-70
2022/04/16 11:03:32;;;;;;;2.90;2.70;;;22.30;38.50;;;;;;5036559;28;20184;-70
2022/04/16 11:06:02;;;;;;;2.70;2.50;;;22.30;38.80;;;;;;5036502;28;20658;-70
2022/04/16 11:08:30;;;;;;;2.70;2.50;;;22.30;38.50;;;;;;5036804;28;20172;-70
2022/04/16 11:10:58;;;;;;;2.45;2.30;;;22.30;38.50;;;;;;5018675;28;20215;-70
2022/04/16 11:13:25;;;;;;;2.70;2.50;;;22.30;39.30;;;;;;5036500;28;20215;-70
2022/04/16 11:15:52;;;;;;;2.80;2.50;;;22.20;38.40;;;;;;5019078;28;20224;-71
2022/04/16 11:18:19;;;;;;;2.30;2.13;;;22.20;38.60;;;;;;5036386;28;20192;-70
2022/04/16 11:20:55;;;;;;;2.35;2.15;;;22.30;38.60;;;;;;5045786;22;20730;-62
2022/04/16 11:23:26;;;;;;;2.78;2.47;;;22.30;38.60;;;;;;5055905;28;20176;-62
2022/04/16 11:34:17;;;;;;;2.72;2.53;;;22.30;38.50;;;;;;5035819;28;20196;-62
2022/04/16 11:36:45;;;;;;;2.70;2.50;;;22.30;38.70;;;;;;5062429;22;20283;-68
2022/04/16 11:39:23;;;;;;;3.33;2.70;;;22.20;38.60;;;;;;5033463;28;20260;-70
2022/04/16 11:41:51;;;;;;;2.40;2.30;;;22.30;38.70;;;;;;5015204;28;20666;-71
2022/04/16 11:44:28;;;;;;;2.50;2.30;;;22.30;39.10;;;;;;5013992;28;20238;-70
2022/04/16 11:46:56;;;;;;;2.70;2.30;;;22.30;39.10;;;;;;5203894;22;20250;-70
2022/04/16 11:49:23;;;;;;;2.50;2.20;;;22.30;39.30;;;;;;5463196;22;20243;-71
2022/04/16 11:51:50;;;;;;;3.08;2.67;;;22.30;39.60;;;;;;5038927;28;20180;-71
2022/04/16 11:54:29;;;;;;;6.90;2.40;;;22.40;39.50;;;;;;5038319;28;20711;-71
2022/04/16 11:56:56;;;;;;;2.40;2.30;;;22.40;38.80;;;;;;5058419;28;20226;-71
2022/04/16 11:59:24;;;;;;;3.03;2.80;;;22.50;38.70;;;;;;5046515;28;20196;-70
2022/04/16 12:01:57;;;;;;;2.28;2.10;;;22.50;38.20;;;;;;5174696;22;20235;-71
2022/04/16 12:04:37;;;;;;;2.60;2.40;;;22.50;39.20;;;;;;5516338;22;20227;-70
2022/04/16 12:07:09;;;;;;;2.55;2.35;;;22.60;38.10;;;;;;5038493;28;20184;-71
2022/04/16 12:09:38;;;;;;;2.65;2.45;;;22.60;38.40;;;;;;5037559;28;20195;-71
2022/04/16 12:12:06;;;;;;;3.58;2.47;;;22.60;39.00;;;;;;5129383;22;20505;-71
2022/04/16 12:14:33;;;;;;;2.50;2.30;;;22.60;38.70;;;;;;5037483;28;20306;-70
2022/04/16 12:17:00;;;;;;;2.80;2.60;;;22.60;38.70;;;;;;5037541;28;20196;-70
2022/04/16 12:19:32;;;;;;;2.65;2.45;;;22.60;38.70;;;;;;5037262;28;20203;-70
2022/04/16 12:21:59;;;;;;;2.78;2.58;;;22.70;39.00;;;;;;5037765;28;20283;-70
2022/04/16 12:24:28;;;;;;;2.80;2.60;;;22.70;39.20;;;;;;5020734;28;20215;-70
2022/04/16 12:26:57;;;;;;;2.97;2.40;;;22.70;39.20;;;;;;5036792;28;20191;-70
2022/04/16 12:29:29;;;;;;;3.30;2.75;;;22.80;40.10;;;;;;5036751;28;20210;-69
2022/04/16 12:37:24;;;;;;;2.75;2.55;;;22.80;38.90;;;;;;5141207;22;21061;-69
2022/04/16 12:42:42;;;;;;;2.65;2.45;;;22.80;39.30;;;;;;5115371;22;20635;-71
2022/04/16 12:45:10;;;;;;;2.75;2.55;;;22.90;38.50;;;;;;5153471;22;20259;-71
2022/04/16 12:47:37;;;;;;;2.70;2.50;;;22.90;38.80;;;;;;5172254;22;20245;-70
2022/04/16 12:52:42;;;;;;;2.97;2.78;;;22.90;39.20;;;;;;5053334;28;20217;-70
2022/04/16 12:55:09;;;;;;;3.55;2.90;;;22.90;38.70;;;;;;5052378;28;20214;-70
2022/04/16 12:57:36;;;;;;;3.05;2.40;;;22.90;38.30;;;;;;5053204;28;20222;-70
2022/04/16 13:00:07;;;;;;;3.50;2.15;;;22.90;38.60;;;;;;5052542;28;20269;-70
2022/04/16 13:02:35;;;;;;;2.60;2.40;;;22.90;40.30;;;;;;5052998;28;20199;-70
2022/04/16 13:05:02;;;;;;;2.72;2.40;;;22.90;39.00;;;;;;5054093;28;20184;-69
2022/04/16 13:07:29;;;;;;;3.08;2.78;;;22.90;39.00;;;;;;5052560;28;20578;-70
2022/04/16 13:09:57;;;;;;;3.20;2.97;;;22.90;38.40;;;;;;5052539;28;20215;-70
2022/04/16 13:12:24;;;;;;;2.90;2.63;;;22.90;38.90;;;;;;5052459;28;20199;-70
2022/04/16 13:14:51;;;;;;;2.22;2.13;;;22.90;39.10;;;;;;5052446;28;20269;-70
2022/04/16 13:17:20;;;;;;;2.60;2.40;;;22.90;39.30;;;;;;5053464;28;20195;-69
2022/04/16 13:19:47;;;;;;;3.78;2.60;;;22.90;40.00;;;;;;5053516;28;20214;-70
2022/04/16 13:22:15;;;;;;;2.50;2.30;;;22.90;38.70;;;;;;5052369;28;20249;-70
2022/04/16 13:24:41;;;;;;;2.88;1.98;;;22.90;39.40;;;;;;5053716;28;20202;-70
2022/04/16 13:27:08;;;;;;;2.88;2.67;;;22.90;39.80;;;;;;5052687;28;20637;-69
2022/04/16 13:29:36;;;;;;;2.58;2.38;;;22.90;39.40;;;;;;5052714;28;20203;-70
2022/04/16 13:32:03;;;;;;;2.70;2.50;;;22.90;39.40;;;;;;5054095;28;20207;-71
2022/04/16 13:34:35;;;;;;;2.78;2.58;;;22.90;38.40;;;;;;5053819;28;20204;-70